Time;durP1;ratioP1;P1;durP2;ratioP2;P2;SDS_P1;SDS_P2;PMS_P1;PMS_P2;Temp;Humidity;BMP_temperature;BMP_pressure;BME280_temperature;BME280_humidity;BME280_pressure;Samples;Min_cycle;Max_cycle;Signal;HPM_P1;HPM_P2
2023/10/18 00:01:24;;;;;;;;;;;;;;;24.92;18.17;98438.28;5086195;28;19942;-92
2023/10/18 00:03:53;;;;;;;;;;;;;;;24.96;18.18;98443.81;5092284;28;19954;-92
2023/10/18 00:06:22;;;;;;;;;;;;;;;25.03;18.00;98444.47;5093207;28;19957;-92
2023/10/18 00:08:49;;;;;;;;;;;;;;;25.10;18.10;98444.34;5086643;28;20015;-92
2023/10/18 00:11:15;;;;;;;;;;;;;;;25.09;17.96;98439.13;5094871;28;19922;-93
2023/10/18 00:13:42;;;;;;;;;;;;;;;25.03;18.04;98436.06;5088130;28;19970;-91
2023/10/18 00:16:08;;;;;;;;;;;;;;;24.63;18.05;98434.41;5082450;28;19929;-91
2023/10/18 00:18:35;;;;;;;;;;;;;;;24.33;18.50;98440.16;5083230;28;20287;-92
2023/10/18 00:21:02;;;;;;;;;;;;;;;24.43;18.52;98437.19;5083878;28;19924;-92
2023/10/18 00:23:30;;;;;;;;;;;;;;;24.46;18.42;98422.25;5082434;28;19921;-92
2023/10/18 00:25:56;;;;;;;;;;;;;;;24.36;18.38;98428.06;5088408;28;19929;-92
2023/10/18 00:28:22;;;;;;;;;;;;;;;24.32;18.46;98419.72;5096219;28;19959;-92
2023/10/18 00:30:50;;;;;;;;;;;;;;;24.28;18.40;98421.00;5082952;28;19927;-92
2023/10/18 00:33:18;;;;;;;;;;;;;;;24.45;18.28;98420.69;5079420;28;20007;-92
2023/10/18 00:35:44;;;;;;;;;;;;;;;24.63;17.96;98423.16;5077944;28;19921;-91
2023/10/18 00:38:14;;;;;;;;;;;;;;;24.73;18.00;98425.00;5090067;28;19942;-92
2023/10/18 00:40:40;;;;;;;;;;;;;;;24.70;18.03;98414.59;5081894;28;19973;-92
2023/10/18 00:43:14;;;;;;;;;;;;;;;24.61;17.73;98411.56;5080097;28;20384;-92
2023/10/18 00:45:43;;;;;;;;;;;;;;;24.49;17.97;98417.81;5086739;28;19925;-92
2023/10/18 00:48:11;;;;;;;;;;;;;;;24.58;17.67;98412.41;5082421;28;19927;-92
2023/10/18 00:50:39;;;;;;;;;;;;;;;24.37;17.72;98410.00;5089225;28;19927;-93
2023/10/18 00:53:06;;;;;;;;;;;;;;;24.04;18.41;98408.94;5086947;28;19924;-92
2023/10/18 00:55:32;;;;;;;;;;;;;;;24.19;18.33;98415.13;5085501;28;19920;-92
2023/10/18 00:57:58;;;;;;;;;;;;;;;24.33;17.90;98407.28;5086147;28;19916;-92
2023/10/18 01:00:24;;;;;;;;;;;;;;;24.38;18.10;98397.56;5084508;28;19936;-92
2023/10/18 01:02:53;;;;;;;;;;;;;;;24.25;17.83;98394.56;5087887;28;19966;-92
2023/10/18 01:05:19;;;;;;;;;;;;;;;23.91;18.01;98393.94;5089419;28;19916;-92
2023/10/18 01:07:52;;;;;;;;;;;;;;;23.76;18.55;98393.38;5085731;28;19928;-92
2023/10/18 01:10:23;;;;;;;;;;;;;;;24.06;18.66;98386.91;5086000;28;19920;-92
2023/10/18 01:12:52;;;;;;;;;;;;;;;24.32;17.85;98383.22;5084373;28;19928;-92
2023/10/18 01:15:19;;;;;;;;;;;;;;;24.41;18.08;98379.88;5087165;28;19959;-92
2023/10/18 01:17:47;;;;;;;;;;;;;;;24.50;18.32;98374.50;5091525;28;20291;-92
2023/10/18 01:20:27;;;;;;;;;;;;;;;24.56;18.47;98378.38;5085616;28;19962;-91
2023/10/18 01:22:54;;;;;;;;;;;;;;;24.59;17.83;98374.72;5083291;28;20288;-92
2023/10/18 01:25:20;;;;;;;;;;;;;;;24.40;17.90;98379.06;5087106;28;19927;-92
2023/10/18 01:27:46;;;;;;;;;;;;;;;24.12;18.21;98379.59;5083815;28;19962;-92
2023/10/18 01:30:16;;;;;;;;;;;;;;;24.31;18.29;98375.25;5089198;28;19920;-93
2023/10/18 01:32:44;;;;;;;;;;;;;;;24.27;18.02;98375.28;5090216;28;19946;-91
2023/10/18 01:35:11;;;;;;;;;;;;;;;24.41;17.72;98379.88;5086230;28;19916;-92
2023/10/18 01:37:43;;;;;;;;;;;;;;;24.54;17.76;98372.41;5090183;28;19965;-91
2023/10/18 01:42:55;;;;;;;;;;;;;;;23.98;17.91;98375.00;5088443;28;19916;-91
2023/10/18 01:45:30;;;;;;;;;;;;;;;24.15;17.98;98369.53;5085845;28;19928;-91
2023/10/18 01:47:57;;;;;;;;;;;;;;;24.25;18.13;98363.72;5092518;28;19920;-91
2023/10/18 01:50:23;;;;;;;;;;;;;;;24.22;18.56;98363.78;5089178;28;19920;-91
2023/10/18 01:52:49;;;;;;;;;;;;;;;23.90;18.60;98364.28;5096768;28;19915;-91
2023/10/18 01:55:17;;;;;;;;;;;;;;;24.17;18.23;98367.09;5096313;28;19942;-91
2023/10/18 01:57:45;;;;;;;;;;;;;;;24.36;18.33;98371.94;5099201;28;19966;-91
2023/10/18 02:00:15;;;;;;;;;;;;;;;24.22;18.05;98377.81;5088037;28;19931;-91
2023/10/18 02:02:41;;;;;;;;;;;;;;;24.06;18.53;98370.09;5098013;28;20346;-91
2023/10/18 02:05:08;;;;;;;;;;;;;;;24.12;17.91;98373.19;5084597;28;19916;-91
2023/10/18 02:07:35;;;;;;;;;;;;;;;24.16;18.26;98368.28;5088164;28;19942;-91
2023/10/18 02:10:02;;;;;;;;;;;;;;;23.51;18.98;98372.53;5087475;28;19928;-90
2023/10/18 02:12:29;;;;;;;;;;;;;;;23.71;18.83;98376.25;5081896;28;19943;-91
2023/10/18 02:15:01;;;;;;;;;;;;;;;24.04;18.57;98375.28;5078897;28;20308;-92
2023/10/18 02:17:27;;;;;;;;;;;;;;;24.27;18.13;98378.09;5087437;28;20408;-91
2023/10/18 02:19:54;;;;;;;;;;;;;;;24.30;18.06;98370.84;5086362;28;19974;-90
2023/10/18 02:22:20;;;;;;;;;;;;;;;24.25;18.87;98379.78;5083348;28;19920;-90
2023/10/18 02:24:46;;;;;;;;;;;;;;;24.37;18.21;98382.72;5080939;28;19916;-91
2023/10/18 02:27:19;;;;;;;;;;;;;;;24.19;18.08;98381.47;5078583;28;20044;-90
2023/10/18 02:29:46;;;;;;;;;;;;;;;24.14;18.44;98377.16;5080641;28;19943;-92
2023/10/18 02:35:09;;;;;;;;;;;;;;;24.36;18.06;98380.38;5079815;28;20010;-91
2023/10/18 02:37:35;;;;;;;;;;;;;;;24.31;17.73;98381.66;5082727;28;19959;-90
2023/10/18 02:40:07;;;;;;;;;;;;;;;24.19;17.76;98384.28;5090255;28;19931;-90
2023/10/18 02:42:33;;;;;;;;;;;;;;;24.27;17.58;98382.94;5084989;28;20271;-90
2023/10/18 02:45:00;;;;;;;;;;;;;;;24.21;17.92;98384.63;5078877;28;19971;-90
2023/10/18 02:47:27;;;;;;;;;;;;;;;24.36;17.70;98391.59;5077161;28;19932;-90
2023/10/18 02:49:53;;;;;;;;;;;;;;;24.46;17.56;98379.34;5076225;28;20291;-91
2023/10/18 02:52:19;;;;;;;;;;;;;;;24.27;17.74;98364.06;5087493;28;19927;-90
2023/10/18 02:54:48;;;;;;;;;;;;;;;24.07;18.17;98382.06;5079562;28;20110;-91
2023/10/18 02:57:14;;;;;;;;;;;;;;;24.23;17.95;98377.38;5077632;28;19923;-90
2023/10/18 02:59:42;;;;;;;;;;;;;;;24.21;17.71;98374.22;5084625;28;19924;-90
2023/10/18 03:02:14;;;;;;;;;;;;;;;24.31;17.79;98378.06;5080507;28;19920;-90
2023/10/18 03:04:42;;;;;;;;;;;;;;;24.35;17.50;98373.97;5082963;28;19920;-90
2023/10/18 03:07:10;;;;;;;;;;;;;;;24.33;17.90;98384.03;5085106;28;20410;-90
2023/10/18 03:12:13;;;;;;;;;;;;;;;24.31;18.26;98378.06;5083744;28;19920;-91
2023/10/18 03:14:39;;;;;;;;;;;;;;;24.36;17.54;98378.38;5076462;28;20016;-90
2023/10/18 03:19:49;;;;;;;;;;;;;;;24.53;17.41;98376.41;5077804;28;19920;-90
2023/10/18 03:22:19;;;;;;;;;;;;;;;24.57;17.42;98382.78;5083265;28;19921;-90
2023/10/18 03:24:48;;;;;;;;;;;;;;;24.56;17.72;98373.56;5080170;28;20304;-90
2023/10/18 03:27:14;;;;;;;;;;;;;;;24.57;17.35;98368.75;5080150;28;19986;-90
2023/10/18 03:29:43;;;;;;;;;;;;;;;24.49;17.15;98364.47;5084991;28;19920;-90
2023/10/18 03:32:14;;;;;;;;;;;;;;;23.89;17.75;98360.72;5077160;28;20629;-89
2023/10/18 03:34:43;;;;;;;;;;;;;;;23.47;18.24;98366.19;5075551;28;19973;-89
2023/10/18 03:37:20;;;;;;;;;;;;;;;23.65;17.91;98361.09;5087980;28;20392;-90
2023/10/18 03:39:52;;;;;;;;;;;;;;;23.79;17.96;98363.69;5080418;28;19959;-90
2023/10/18 03:42:33;;;;;;;;;;;;;;;23.61;18.07;98360.38;5084205;28;19921;-90
2023/10/18 03:45:10;;;;;;;;;;;;;;;23.61;17.68;98358.38;5074567;28;19924;-89
2023/10/18 03:47:37;;;;;;;;;;;;;;;23.78;17.63;98367.72;5084093;28;20285;-90
2023/10/18 03:50:08;;;;;;;;;;;;;;;23.99;17.56;98354.13;5092027;28;19954;-91
2023/10/18 03:52:34;;;;;;;;;;;;;;;24.10;17.20;98345.56;5078558;28;19924;-91
2023/10/18 03:57:29;;;;;;;;;;;;;;;24.11;17.84;98337.94;5079778;28;19928;-91
2023/10/18 03:59:58;;;;;;;;;;;;;;;24.08;18.22;98344.41;5077604;28;20449;-91
2023/10/18 04:04:57;;;;;;;;;;;;;;;23.66;17.87;98332.66;5077463;28;19974;-91
2023/10/18 04:07:24;;;;;;;;;;;;;;;23.92;17.88;98325.41;5079951;28;19927;-90
2023/10/18 04:12:27;;;;;;;;;;;;;;;23.83;17.85;98320.34;5074107;28;19956;-91
2023/10/18 04:14:55;;;;;;;;;;;;;;;23.88;17.92;98314.25;5073402;28;20288;-90
2023/10/18 04:20:00;;;;;;;;;;;;;;;23.97;17.88;98314.50;5088537;28;19928;-91
2023/10/18 04:22:27;;;;;;;;;;;;;;;24.12;17.72;98309.44;5076655;28;19965;-91
2023/10/18 04:24:54;;;;;;;;;;;;;;;24.10;17.28;98319.50;5076127;28;19953;-91
2023/10/18 04:27:23;;;;;;;;;;;;;;;24.10;17.40;98323.13;5079440;28;20001;-91
2023/10/18 04:29:49;;;;;;;;;;;;;;;24.17;17.30;98320.19;5074731;28;19920;-91
2023/10/18 04:32:18;;;;;;;;;;;;;;;24.17;17.38;98331.41;5075254;28;20723;-90
2023/10/18 04:34:44;;;;;;;;;;;;;;;24.10;17.32;98325.13;5076223;28;20013;-89
2023/10/18 04:37:12;;;;;;;;;;;;;;;23.80;17.76;98328.81;5073186;28;19924;-88
2023/10/18 04:39:40;;;;;;;;;;;;;;;23.76;17.77;98326.06;5073937;28;20448;-87
2023/10/18 04:42:16;;;;;;;;;;;;;;;23.74;17.66;98327.72;5078361;28;20402;-87
2023/10/18 04:44:47;;;;;;;;;;;;;;;23.61;17.51;98332.34;5088345;28;20687;-88
2023/10/18 04:47:14;;;;;;;;;;;;;;;23.79;17.40;98339.25;5082757;28;19920;-87
2023/10/18 04:49:43;;;;;;;;;;;;;;;23.95;17.44;98336.56;5079488;28;20006;-87
2023/10/18 04:52:09;;;;;;;;;;;;;;;24.02;17.54;98332.84;5081800;28;19920;-87
2023/10/18 04:54:37;;;;;;;;;;;;;;;24.02;17.78;98333.63;5081171;28;20330;-89
2023/10/18 04:57:10;;;;;;;;;;;;;;;24.07;17.37;98331.59;5080392;28;20276;-88
2023/10/18 04:59:46;;;;;;;;;;;;;;;24.01;17.64;98323.63;5091251;28;19965;-89
2023/10/18 05:02:18;;;;;;;;;;;;;;;24.06;17.37;98328.00;5078821;28;19932;-92
2023/10/18 05:04:46;;;;;;;;;;;;;;;23.91;18.10;98335.84;5084999;28;19916;-92
2023/10/18 05:12:16;;;;;;;;;;;;;;;24.07;17.65;98343.59;5085706;28;20281;-91
2023/10/18 05:14:43;;;;;;;;;;;;;;;23.86;17.82;98344.75;5076613;28;19928;-91
2023/10/18 05:17:17;;;;;;;;;;;;;;;23.80;18.06;98340.03;5095917;28;19965;-93
2023/10/18 05:19:47;;;;;;;;;;;;;;;23.98;18.04;98337.72;5096118;28;20375;-90
2023/10/18 05:22:19;;;;;;;;;;;;;;;24.18;17.93;98344.19;5095600;28;19920;-89
2023/10/18 05:24:47;;;;;;;;;;;;;;;;;;5096228;28;19977;-90
2023/10/18 05:27:24;;;;;;;;;;;;;;;23.45;18.42;98347.00;5095095;28;20391;-90
2023/10/18 05:29:55;;;;;;;;;;;;;;;23.67;18.66;98339.84;5079504;28;20510;-89
2023/10/18 05:37:50;;;;;;;;;;;;;;;23.93;18.67;98341.00;5114314;28;20022;-90
2023/10/18 05:43:03;;;;;;;;;;;;;;;24.30;19.26;98340.78;5087704;28;19931;-89
2023/10/18 05:45:33;;;;;;;;;;;;;;;24.48;18.34;98341.22;5090916;28;20355;-89
2023/10/18 05:48:03;;;;;;;;;;;;;;;24.57;18.70;98337.84;5093007;28;19916;-89
2023/10/18 05:50:31;;;;;;;;;;;;;;;24.51;18.34;98337.56;5088279;28;19920;-90
2023/10/18 05:53:03;;;;;;;;;;;;;;;24.61;18.54;98342.19;5091009;28;19916;-89
2023/10/18 05:55:32;;;;;;;;;;;;;;;24.76;18.36;98336.28;5076804;28;20026;-90
2023/10/18 05:58:04;;;;;;;;;;;;;;;24.83;18.57;98344.59;5081124;28;19923;-89
2023/10/18 06:00:34;;;;;;;;;;;;;;;24.93;18.38;98341.53;5075018;28;19974;-89
2023/10/18 06:03:01;;;;;;;;;;;;;;;24.56;18.61;98341.88;5074945;28;19965;-89
2023/10/18 06:05:36;;;;;;;;;;;;;;;24.44;19.15;98353.75;5075484;28;19916;-89
2023/10/18 06:08:02;;;;;;;;;;;;;;;24.57;19.65;98343.47;5088959;28;19923;-89
2023/10/18 06:10:28;;;;;;;;;;;;;;;24.46;19.59;98345.69;5092857;28;20383;-89
2023/10/18 06:12:57;;;;;;;;;;;;;;;24.29;19.80;98344.81;5084792;28;19920;-90
2023/10/18 06:15:34;;;;;;;;;;;;;;;24.01;20.19;98346.06;5094818;28;19924;-89
2023/10/18 06:18:00;;;;;;;;;;;;;;;24.08;20.37;98352.81;5094816;28;20284;-89
2023/10/18 06:20:30;;;;;;;;;;;;;;;24.35;20.37;98350.72;5094097;28;20389;-89
2023/10/18 06:23:09;;;;;;;;;;;;;;;24.54;20.02;98350.75;5090295;28;20445;-89
2023/10/18 06:25:37;;;;;;;;;;;;;;;24.61;20.26;98347.78;5076109;28;20372;-89
2023/10/18 06:28:07;;;;;;;;;;;;;;;24.68;20.21;98344.84;5093110;28;19920;-89
2023/10/18 06:30:39;;;;;;;;;;;;;;;24.68;20.48;98350.47;5094839;28;19916;-89
2023/10/18 06:33:07;;;;;;;;;;;;;;;24.89;20.39;98349.25;5094131;28;19989;-89
2023/10/18 06:35:58;;;;;;;;;;;;;;;24.95;20.70;98347.50;5095060;28;19962;-89
2023/10/18 06:38:24;;;;;;;;;;;;;;;25.12;20.15;98349.16;5093202;28;19971;-89
2023/10/18 06:41:00;;;;;;;;;;;;;;;25.25;20.39;98344.44;5085144;28;19981;-89
2023/10/18 06:43:26;;;;;;;;;;;;;;;25.05;20.34;98340.88;5094417;28;19923;-88
2023/10/18 06:45:53;;;;;;;;;;;;;;;24.59;21.11;98341.03;5090645;28;19931;-89
2023/10/18 06:48:22;;;;;;;;;;;;;;;25.04;20.71;98344.13;5090461;28;19973;-89
2023/10/18 06:50:48;;;;;;;;;;;;;;;25.02;20.69;98347.38;5094415;28;19962;-88
2023/10/18 06:53:15;;;;;;;;;;;;;;;24.97;20.88;98335.88;5091151;28;19920;-88
2023/10/18 06:55:44;;;;;;;;;;;;;;;24.93;21.24;98335.94;5074344;28;20424;-89
2023/10/18 07:01:00;;;;;;;;;;;;;;;25.42;21.07;98336.84;5093242;28;19924;-88
2023/10/18 07:03:31;;;;;;;;;;;;;;;25.48;21.09;98335.13;5075154;28;19927;-88
2023/10/18 07:05:58;;;;;;;;;;;;;;;25.20;21.33;98335.75;5073848;28;19916;-88
2023/10/18 07:08:33;;;;;;;;;;;;;;;25.10;21.19;98336.78;5082645;28;19920;-88
2023/10/18 07:11:08;;;;;;;;;;;;;;;25.39;21.46;98329.28;5082838;28;19921;-88
2023/10/18 07:13:34;;;;;;;;;;;;;;;25.29;21.35;98327.50;5078713;28;20279;-89
2023/10/18 07:16:01;;;;;;;;;;;;;;;25.30;21.82;98329.06;5073416;28;19971;-88
2023/10/18 07:18:27;;;;;;;;;;;;;;;25.22;21.95;98328.47;5086770;28;19920;-88
2023/10/18 07:20:59;;;;;;;;;;;;;;;25.39;22.03;98327.25;5076225;28;19917;-88
2023/10/18 07:23:26;;;;;;;;;;;;;;;25.07;21.93;98326.38;5073727;28;20007;-88
2023/10/18 07:25:52;;;;;;;;;;;;;;;25.01;22.15;98328.16;5078376;28;19966;-88
2023/10/18 07:28:21;;;;;;;;;;;;;;;25.20;22.22;98328.13;5073836;28;20377;-87
2023/10/18 07:30:48;;;;;;;;;;;;;;;25.38;22.15;98336.94;5073322;28;19916;-88
2023/10/18 07:33:15;;;;;;;;;;;;;;;25.45;22.49;98326.75;5073705;28;20011;-88
2023/10/18 07:35:45;;;;;;;;;;;;;;;24.71;23.03;98329.16;5074455;28;19917;-88
2023/10/18 07:38:11;;;;;;;;;;;;;;;25.28;22.54;98332.34;5087393;28;20410;-88
2023/10/18 07:40:46;;;;;;;;;;;;;;;25.62;22.01;98328.38;5091681;28;19921;-87
2023/10/18 07:43:12;;;;;;;;;;;;;;;25.63;21.75;98327.91;5085156;28;20291;-87
2023/10/18 07:45:39;;;;;;;;;;;;;;;25.75;22.30;98318.78;5078175;28;19924;-86
2023/10/18 07:48:05;;;;;;;;;;;;;;;26.04;21.87;98318.88;5082153;28;19920;-87
2023/10/18 07:50:34;;;;;;;;;;;;;;;25.91;21.76;98317.97;5073352;28;19928;-86
2023/10/18 07:53:01;;;;;;;;;;;;;;;26.11;22.51;98320.72;5073563;28;20288;-88
2023/10/18 07:55:27;;;;;;;;;;;;;;;26.88;21.37;98317.78;5074215;28;20023;-87
2023/10/18 07:57:54;;;;;;;;;;;;;;;27.30;21.24;98317.28;5073465;28;19920;-87
2023/10/18 08:00:21;;;;;;;;;;;;;;;27.64;20.37;98307.38;5079013;28;19921;-87
2023/10/18 08:02:48;;;;;;;;;;;;;;;27.32;21.15;98317.63;5092886;28;19985;-88
2023/10/18 08:05:30;;;;;;;;;;;;;;;27.11;21.50;98311.84;5086136;28;19991;-87
2023/10/18 08:07:57;;;;;;;;;;;;;;;27.45;21.39;98308.38;5074151;28;19959;-88
2023/10/18 08:10:23;;;;;;;;;;;;;;;27.27;21.11;98308.94;5073343;28;20011;-87
2023/10/18 08:13:10;;;;;;;;;;;;;;;27.08;21.53;98305.09;5075945;28;20018;-88
2023/10/18 08:15:37;;;;;;;;;;;;;;;27.25;22.02;98308.59;5084920;28;19950;-88
2023/10/18 08:18:42;;;;;;;;;;;;;;;27.78;20.49;98299.22;5090914;28;19970;-88
2023/10/18 08:26:01;;;;;;;;;;;;;;;27.99;21.71;98295.72;5095836;28;20393;-89
2023/10/18 08:28:38;;;;;;;;;;;;;;;28.54;19.17;98296.97;5080221;28;19938;-89
2023/10/18 08:31:10;;;;;;;;;;;;;;;28.73;19.68;98289.44;5076289;28;19923;-88
2023/10/18 08:33:36;;;;;;;;;;;;;;;28.55;20.14;98290.06;5076120;28;19917;-88
2023/10/18 08:36:09;;;;;;;;;;;;;;;28.71;19.82;98291.94;5081594;28;19916;-88
2023/10/18 08:38:35;;;;;;;;;;;;;;;28.68;19.97;98290.06;5076510;28;20061;-89
2023/10/18 08:41:13;;;;;;;;;;;;;;;28.69;20.57;98285.97;5087623;28;19928;-88
2023/10/18 08:44:02;;;;;;;;;;;;;;;28.85;20.53;98285.75;5078701;28;19924;-89
2023/10/18 08:46:28;;;;;;;;;;;;;;;28.67;20.07;98277.16;5078048;28;19932;-88
2023/10/18 08:48:54;;;;;;;;;;;;;;;28.75;20.42;98275.66;5088098;28;20424;-89
2023/10/18 08:51:23;;;;;;;;;;;;;;;28.86;20.06;98275.25;5074751;28;19931;-88
2023/10/18 08:53:51;;;;;;;;;;;;;;;29.17;19.72;98273.22;5075850;28;19966;-88
2023/10/18 08:56:25;;;;;;;;;;;;;;;28.93;19.19;98267.28;5075848;28;19969;-88
2023/10/18 08:58:53;;;;;;;;;;;;;;;28.96;20.66;98269.19;5077543;28;19975;-89
2023/10/18 09:01:21;;;;;;;;;;;;;;;29.27;19.26;98267.16;5081246;28;19963;-89
2023/10/18 09:03:47;;;;;;;;;;;;;;;29.67;19.24;98261.47;5082808;28;19923;-88
2023/10/18 09:06:22;;;;;;;;;;;;;;;29.79;19.08;98266.25;5094464;28;19956;-89
2023/10/18 09:09:10;;;;;;;;;;;;;;;29.85;18.80;98266.44;5096657;28;20029;-89
2023/10/18 09:11:36;;;;;;;;;;;;;;;29.77;18.86;98263.09;5074824;28;19978;-89
2023/10/18 09:14:08;;;;;;;;;;;;;;;29.83;18.37;98254.75;5075790;28;20268;-87
2023/10/18 09:16:38;;;;;;;;;;;;;;;29.96;18.34;98258.25;5084825;28;19922;-88
2023/10/18 09:19:08;;;;;;;;;;;;;;;29.67;19.35;98257.84;5076136;28;19917;-88
2023/10/18 09:22:18;;;;;;;;;;;;;;;29.98;18.81;98256.53;5076351;28;19916;-88
2023/10/18 09:24:30;;;;;;;;;;;;;;;29.86;18.86;98253.84;5073702;28;19924;-90
2023/10/18 09:26:57;;;;;;;;;;;;;;;29.66;18.42;98257.09;5083278;28;19916;-90
2023/10/18 09:29:25;;;;;;;;;;;;;;;29.74;17.98;98247.03;5092773;28;19916;-88
2023/10/18 09:32:01;;;;;;;;;;;;;;;29.58;18.42;98255.78;5074857;28;20112;-88
2023/10/18 09:34:33;;;;;;;;;;;;;;;29.86;18.76;98248.16;5089293;28;19920;-88
2023/10/18 09:36:59;;;;;;;;;;;;;;;30.19;17.81;98254.81;5080824;28;19920;-88
2023/10/18 09:39:37;;;;;;;;;;;;;;;29.87;18.03;98244.84;5075215;28;19916;-88
2023/10/18 09:42:04;;;;;;;;;;;;;;;29.99;18.14;98249.59;5074883;28;19916;-88
2023/10/18 09:44:30;;;;;;;;;;;;;;;30.16;17.69;98250.09;5076171;28;19963;-88
2023/10/18 09:46:59;;;;;;;;;;;;;;;30.02;17.87;98247.88;5078163;28;19920;-88
2023/10/18 09:49:26;;;;;;;;;;;;;;;30.08;18.52;98243.16;5095741;28;19916;-88
2023/10/18 09:51:53;;;;;;;;;;;;;;;30.30;17.81;98245.81;5095832;28;19920;-88
2023/10/18 09:54:22;;;;;;;;;;;;;;;30.39;16.84;98243.81;5095820;28;19919;-88
2023/10/18 09:56:53;;;;;;;;;;;;;;;30.64;17.46;98242.69;5095779;28;19920;-89
2023/10/18 09:59:31;;;;;;;;;;;;;;;30.72;16.97;98229.75;5096163;28;19921;-89
2023/10/18 10:02:00;;;;;;;;;;;;;;;31.03;17.21;98227.50;5094676;28;19919;-88
2023/10/18 10:04:32;;;;;;;;;;;;;;;30.91;17.92;98227.69;5086741;28;19970;-88
2023/10/18 10:07:27;;;;;;;;;;;;;;;31.11;17.45;98225.88;5106146;28;20371;-89
2023/10/18 10:09:48;;;;;;;;;;;;;;;30.83;17.52;98232.84;5115494;28;19923;-88
2023/10/18 10:12:15;;;;;;;;;;;;;;;30.81;17.79;98223.28;5088076;28;20437;-88
2023/10/18 10:14:42;;;;;;;;;;;;;;;31.00;16.79;98222.75;5074890;28;19928;-89
2023/10/18 10:17:10;;;;;;;;;;;;;;;30.77;18.08;98223.44;5093994;28;19928;-89
2023/10/18 10:19:40;;;;;;;;;;;;;;;30.81;16.90;98221.22;5082830;28;19923;-88
2023/10/18 10:22:07;;;;;;;;;;;;;;;30.87;18.44;98216.50;5075590;28;19922;-89
2023/10/18 10:24:42;;;;;;;;;;;;;;;30.55;16.92;98220.03;5074576;28;19943;-88
2023/10/18 10:32:52;;;;;;;;;;;;;;;28.85;18.74;98214.28;5095251;28;20011;-89
2023/10/18 10:35:24;;;;;;;;;;;;;;;28.84;18.82;98212.72;5082902;28;19916;-91
2023/10/18 10:37:53;;;;;;;;;;;;;;;27.64;20.25;98200.97;5076259;28;19921;-91
2023/10/18 10:43:02;;;;;;;;;;;;;;;28.04;19.20;98210.44;5114697;28;20001;-88
2023/10/18 10:45:30;;;;;;;;;;;;;;;28.46;19.56;98216.56;5092708;28;19970;-90
2023/10/18 10:48:16;;;;;;;;;;;;;;;29.37;18.23;98205.75;5074264;28;20018;-88
2023/10/18 10:50:50;;;;;;;;;;;;;;;28.45;18.36;98203.69;5074299;28;20000;-88
2023/10/18 10:53:36;;;;;;;;;;;;;;;25.82;21.14;98211.72;5092914;28;19916;-88
2023/10/18 10:56:16;;;;;;;;;;;;;;;26.69;19.96;98199.19;5078284;28;20027;-91
2023/10/18 10:59:09;;;;;;;;;;;;;;;26.16;21.95;98202.78;5078821;28;19948;-90
2023/10/18 11:02:29;;;;;;;;;;;;;;;27.92;20.38;98197.16;5082956;28;19916;-92
2023/10/18 11:04:27;;;;;;;;;;;;;;;27.97;19.01;98188.09;5079566;28;19939;-90
2023/10/18 11:06:57;;;;;;;;;;;;;;;28.94;18.42;98184.03;5080233;28;20334;-92
2023/10/18 11:09:33;;;;;;;;;;;;;;;29.70;18.07;98177.66;5080560;28;19942;-92
2023/10/18 11:12:13;;;;;;;;;;;;;;;28.18;19.33;98177.28;5083135;28;19920;-92
2023/10/18 11:14:42;;;;;;;;;;;;;;;29.41;18.06;98173.22;5083579;28;19924;-94
2023/10/18 11:19:41;;;;;;;;;;;;;;;29.39;18.48;98164.41;5079038;28;19960;-92
2023/10/18 11:22:19;;;;;;;;;;;;;;;28.77;18.83;98159.31;5078412;28;20200;-91
2023/10/18 11:24:49;;;;;;;;;;;;;;;29.88;18.56;98163.56;5079147;28;20007;-92
2023/10/18 11:27:18;;;;;;;;;;;;;;;29.76;18.02;98156.00;5075540;28;19924;-92
2023/10/18 11:29:45;;;;;;;;;;;;;;;29.86;17.35;98158.38;5076349;28;20304;-91
2023/10/18 11:32:17;;;;;;;;;;;;;;;29.12;18.46;98155.06;5073089;28;19927;-91
2023/10/18 11:34:46;;;;;;;;;;;;;;;27.94;19.28;98155.13;5077127;28;19963;-92
2023/10/18 11:39:57;;;;;;;;;;;;;;;28.61;19.04;98146.22;5074337;28;19985;-92
2023/10/18 11:42:23;;;;;;;;;;;;;;;28.26;19.26;98144.72;5081947;28;19920;-92
2023/10/18 11:44:52;;;;;;;;;;;;;;;28.48;19.12;98140.63;5109307;28;19920;-92
2023/10/18 11:47:22;;;;;;;;;;;;;;;29.20;18.75;98130.91;5080966;28;19924;-92
2023/10/18 11:49:53;;;;;;;;;;;;;;;30.08;17.91;98127.06;5085718;28;19920;-93
2023/10/18 11:52:22;;;;;;;;;;;;;;;30.37;16.92;98132.22;5093714;28;19947;-92
2023/10/18 11:54:51;;;;;;;;;;;;;;;30.75;17.55;98127.53;5084306;28;19971;-92
2023/10/18 11:57:25;;;;;;;;;;;;;;;30.85;16.83;98130.31;5073731;28;19920;-92
2023/10/18 11:59:51;;;;;;;;;;;;;;;31.11;16.19;98117.31;5082314;28;19920;-92
2023/10/18 12:02:18;;;;;;;;;;;;;;;29.92;17.20;98111.16;5087953;28;19920;-91
2023/10/18 12:04:45;;;;;;;;;;;;;;;27.67;19.05;98111.81;5077113;28;19921;-93
2023/10/18 12:07:13;;;;;;;;;;;;;;;28.33;18.55;98104.94;5081533;28;19927;-91
2023/10/18 12:09:43;;;;;;;;;;;;;;;28.12;18.62;98108.56;5092726;28;19924;-92
2023/10/18 12:12:12;;;;;;;;;;;;;;;28.76;18.27;98096.34;5076556;28;20402;-93
2023/10/18 12:14:41;;;;;;;;;;;;;;;29.96;17.17;98096.88;5076517;28;19921;-92
2023/10/18 12:17:07;;;;;;;;;;;;;;;29.31;17.07;98080.34;5083294;28;19924;-91
2023/10/18 12:19:35;;;;;;;;;;;;;;;29.90;16.86;98078.94;5081980;28;19958;-91
2023/10/18 12:22:01;;;;;;;;;;;;;;;29.90;16.66;98070.44;5083041;28;19930;-92
2023/10/18 12:24:27;;;;;;;;;;;;;;;29.69;16.96;98080.66;5085805;28;19920;-91
2023/10/18 12:26:54;;;;;;;;;;;;;;;30.57;16.89;98079.41;5074775;28;20394;-91
2023/10/18 12:29:26;;;;;;;;;;;;;;;31.08;16.55;98064.38;5074973;28;19930;-92
2023/10/18 12:31:53;;;;;;;;;;;;;;;30.69;16.72;98055.72;5073651;28;19924;-91
2023/10/18 12:34:28;;;;;;;;;;;;;;;27.88;18.42;98057.41;5081422;28;19981;-91
2023/10/18 12:36:56;;;;;;;;;;;;;;;28.69;18.10;98052.22;5083823;28;19920;-92
2023/10/18 12:39:22;;;;;;;;;;;;;;;29.39;19.05;98051.25;5094863;28;19924;-92
2023/10/18 12:41:55;;;;;;;;;;;;;;;30.19;17.72;98050.88;5078245;28;19920;-91
2023/10/18 12:44:25;;;;;;;;;;;;;;;30.98;16.67;98034.50;5081147;28;19948;-92
2023/10/18 12:46:54;;;;;;;;;;;;;;;31.81;16.83;98036.22;5077766;28;20015;-92
2023/10/18 12:49:23;;;;;;;;;;;;;;;32.35;16.13;98029.19;5073385;28;19963;-90
2023/10/18 12:51:59;;;;;;;;;;;;;;;32.68;15.57;98026.88;5078641;28;19927;-90
2023/10/18 12:54:36;;;;;;;;;;;;;;;31.06;16.29;98027.19;5080442;28;20375;-88
2023/10/18 12:57:15;;;;;;;;;;;;;;;30.31;16.82;98037.78;5072294;28;19959;-91
2023/10/18 13:00:13;;;;;;;;;;;;;;;30.58;16.84;98029.97;5072055;28;19924;-90
2023/10/18 13:05:15;;;;;;;;;;;;;;;29.66;17.05;98019.34;5080253;28;19917;-90
2023/10/18 13:07:43;;;;;;;;;;;;;;;29.69;17.64;98017.59;5083246;28;19948;-90
2023/10/18 13:10:13;;;;;;;;;;;;;;;30.46;17.23;98008.28;5076871;28;19923;-90
2023/10/18 13:12:51;;;;;;;;;;;;;;;30.80;16.43;98007.03;5088404;28;19916;-91
2023/10/18 13:15:17;;;;;;;;;;;;;;;31.12;16.10;98006.19;5091426;28;19920;-92
2023/10/18 13:17:43;;;;;;;;;;;;;;;30.21;17.14;98005.06;5084517;28;19935;-92
2023/10/18 13:20:15;;;;;;;;;;;;;;;30.07;17.79;98003.72;5089404;28;19923;-92
2023/10/18 13:22:41;;;;;;;;;;;;;;;30.60;16.98;97990.59;5079174;28;19956;-92
2023/10/18 13:25:08;;;;;;;;;;;;;;;30.52;16.24;97992.22;5078130;28;19928;-92
2023/10/18 13:27:38;;;;;;;;;;;;;;;30.94;16.58;97991.38;5089326;28;20313;-94
2023/10/18 13:30:31;;;;;;;;;;;;;;;31.38;16.85;97983.75;5078308;28;19920;-94
2023/10/18 13:32:50;;;;;;;;;;;;;;;32.11;15.40;97983.06;5081481;28;20007;-94
2023/10/18 13:35:16;;;;;;;;;;;;;;;31.74;15.90;97979.81;5081293;28;19960;-94
2023/10/18 13:37:43;;;;;;;;;;;;;;;31.65;15.88;97971.41;5091231;28;19927;-93
2023/10/18 13:40:18;;;;;;;;;;;;;;;31.64;16.47;97975.50;5093558;28;20007;-94
2023/10/18 13:42:45;;;;;;;;;;;;;;;31.82;15.91;97969.63;5081760;28;19958;-92
2023/10/18 13:45:14;;;;;;;;;;;;;;;32.00;15.39;97972.28;5080961;28;19924;-91
2023/10/18 13:47:40;;;;;;;;;;;;;;;31.85;15.69;97960.94;5075590;28;20364;-94
2023/10/18 13:50:10;;;;;;;;;;;;;;;31.68;15.73;97959.84;5083405;28;19939;-93
2023/10/18 13:52:37;;;;;;;;;;;;;;;31.68;15.88;97965.53;5085073;28;20435;-93
2023/10/18 13:55:03;;;;;;;;;;;;;;;31.39;16.25;97969.06;5088548;28;19951;-93
2023/10/18 13:57:30;;;;;;;;;;;;;;;31.64;15.95;97967.78;5089964;28;19927;-93
2023/10/18 13:59:59;;;;;;;;;;;;;;;31.19;16.05;97959.66;5088902;28;19916;-92